Mc Rae, Georgia
Current Conditions -  °F | °C
As of 3:15 AM on Tuesday 27 Jan 2015 (Local Time) from KAZE Reporting Station
Clear Clear  
Wind Chill: 40°   Ceiling: Unl
Heat Index: 40°   Visibility: 10mi
Dew Point: 34°   Wind: 3mph
Humidity: 80%   Direction: 290°WNW
Pressure: 29.94"   Gusts: NA
Location:  31.9833°N, 82.8682°W
Report Text: KAZE 270815Z AUTO 29003KT 10SM CLR 04/01 A2994 RMK AO2 T00420010
Loading
Personal Weather Stations






























Interactive Weather Map New forecast layout! Learn more

10-Day Weather Forecast

Advertisements
Track Severe Weather on mobile